AIRPORT MAP

 RUNWAY INFORMATION

Runway 01L Runway length 11811 ft Runway width 148 ft
Runway elevation 656 ft Runway displaced threshold 0 ft Runway heading 16
Runway 19R Runway length 11811 ft Runway width 148 ft
Runway elevation 675 ft Runway displaced threshold 0 ft Runway heading 196
Runway 01R Runway length 9678 ft Runway width 148 ft
Runway elevation 670 ft Runway displaced threshold 0 ft Runway heading 16
Runway 19L Runway length 9678 ft Runway width 148 ft
Runway elevation 681 ft Runway displaced threshold 0 ft Runway heading 196

 AIRPORT FREQUENCIES

Type APP Name APP Frequency 119.975 MHZ
Type ATIS Name ATIS Frequency 126.125 MHZ
Type CLD Name CLNC DEL Frequency 121.6 MHZ
Type DIR Name DIRECTOR Frequency 131.35 MHZ
Type GND Name GND Frequency 121.925 MHZ
Type MISC Name DE ICING Frequency 131.975 MHZ
Type OPS Name WINGOPS Frequency 29.38 MHZ
Type PMSV Name PMSV METRO Frequency 134.175 MHZ
Type TWR Name TWR Frequency 118.3 MHZ

 AIRPORT NEAR NAVIGATION AIDS

Type NDB Name Bergerud Frequency 316 KHZ
Type VOR-DME Name Gardermoen Frequency 115950 KHZ
Type NDB Name Oppaker Frequency 334 KHZ
Type NDB Name Solberg Frequency 414 KHZ
Type NDB Name Soknen Frequency 387 KHZ

 METAR AND TAF INFORMATION

METAR FOR ENGM
ADDS - METARS form results

(2110 UTC 08 August 2020)
Data provider http://aviationweather.gov/metar/data/
 
METAR text: ENGM 082050Z 20005KT CAVOK 19/14 Q1020 NOSIG
Conditions at: ENGM (OSLO/GARDERMOEN , NO) observed 2050 UTC 08 August 2020
Temperature: 19.0°C (66°F)
Dewpoint: 14.0°C (57°F) [RH = 73%]
Pressure (altimeter): 30.12 inches Hg (1020.0 mb)
Winds: from the SSW (200 degrees) at 6 MPH (5 knots; 2.6 m/s)
Visibility: 6 or more miles (10+ km)
Ceiling: ceiling and visibility are OK
Clouds: unknown
Weather: no significant weather observed at this time

METAR text: ENGM 082020Z 20006KT CAVOK 18/14 Q1020 NOSIG
Conditions at: ENGM (OSLO/GARDERMOEN , NO) observed 2020 UTC 08 August 2020
Temperature: 18.0°C (64°F)
Dewpoint: 14.0°C (57°F) [RH = 77%]
Pressure (altimeter): 30.12 inches Hg (1020.0 mb)
Winds: from the SSW (200 degrees) at 7 MPH (6 knots; 3.1 m/s)
Visibility: 6 or more miles (10+ km)
Ceiling: ceiling and visibility are OK
Clouds: unknown
Weather: no significant weather observed at this time

Forecast for: ENGM (OSLO/GARDERMOEN , NO)
Text: TAF ENGM 0818/0918 20010KT CAVOK
Forecast period: 1800 to 2000 UTC 08 August 2020
Forecast type: FROM: standard forecast or significant change
Winds: from the SSW (200 degrees) at 12 MPH (10 knots; 5.1 m/s)
Visibility: 6 or more miles (10+ km)
Ceiling: unknown
Clouds: missing
Weather: NSW  (no significant weather)
Text: BECMG 0820/0822 36008KT
Forecast period: 2000 UTC 08 August 2020 to 1800 UTC 09 August 2020
Forecast type: BECOMING: Conditions expected to become as follows by 2200 UTC 08 August 2020
Winds: from the N (360 degrees) at 9 MPH (8 knots; 4.1 m/s)
Visibility: 6 or more miles (10+ km)
Ceiling: unknown
Clouds: missing
Weather: NSW  (no significant weather)